createdAt,value
2017-11-03T00:02:11.796Z,99.90
2017-11-03T00:04:39.378Z,99.90
2017-11-03T00:07:06.921Z,99.90
2017-11-03T00:09:34.446Z,99.90
2017-11-03T00:12:02.798Z,99.90
2017-11-03T00:14:31.102Z,99.90
2017-11-03T00:16:58.670Z,99.90
2017-11-03T00:19:26.215Z,99.90
2017-11-03T00:21:53.786Z,99.90
2017-11-03T00:24:21.318Z,99.90
2017-11-03T00:26:49.622Z,99.90
2017-11-03T00:29:17.953Z,99.90
2017-11-03T00:31:45.483Z,99.90
2017-11-03T00:34:13.826Z,99.90
2017-11-03T00:36:41.372Z,99.90
2017-11-03T00:39:08.939Z,99.90
2017-11-03T00:41:36.474Z,99.90
2017-11-03T00:44:04.037Z,99.90
2017-11-03T00:46:31.619Z,99.90
2017-11-03T00:48:59.931Z,99.90
2017-11-03T00:51:27.516Z,99.90
2017-11-03T00:53:55.053Z,99.90
2017-11-03T00:56:28.740Z,99.90
2017-11-03T00:58:56.306Z,99.90
2017-11-03T01:01:40.367Z,99.90
2017-11-03T01:07:01.102Z,99.90
2017-11-03T01:09:28.638Z,99.90
2017-11-03T01:11:56.933Z,99.90
2017-11-03T01:14:25.248Z,99.90
2017-11-03T01:16:52.798Z,99.90
2017-11-03T01:19:20.333Z,99.90
2017-11-03T01:21:47.897Z,99.90
2017-11-03T01:24:15.467Z,99.90
2017-11-03T01:26:43.043Z,99.90
2017-11-03T01:29:10.575Z,99.90
2017-11-03T01:31:38.106Z,99.90
2017-11-03T01:34:06.447Z,99.90
2017-11-03T01:36:33.994Z,99.90
2017-11-03T01:39:01.534Z,99.90
2017-11-03T01:41:29.106Z,99.90
2017-11-03T01:43:56.667Z,99.90
2017-11-03T01:46:24.233Z,99.90
2017-11-03T01:48:51.819Z,99.90
2017-11-03T01:51:19.410Z,99.90
2017-11-03T01:53:47.722Z,99.90
2017-11-03T01:56:15.254Z,99.90
2017-11-03T01:58:42.850Z,99.90
2017-11-03T02:01:11.146Z,99.90
2017-11-03T02:03:38.693Z,99.90
2017-11-03T02:06:06.261Z,99.90
2017-11-03T02:08:34.615Z,99.90
2017-11-03T02:11:02.147Z,99.90
2017-11-03T02:13:30.446Z,99.90
2017-11-03T02:15:58.052Z,99.90
2017-11-03T02:18:25.598Z,99.90
2017-11-03T02:20:53.126Z,99.90
2017-11-03T02:23:20.740Z,99.90
2017-11-03T02:25:48.322Z,99.90
2017-11-03T02:28:15.869Z,99.90
2017-11-03T02:30:44.186Z,99.90
2017-11-03T02:33:11.759Z,99.90
2017-11-03T02:35:39.302Z,99.90
2017-11-03T02:38:06.917Z,99.90
2017-11-03T02:40:34.473Z,99.90
2017-11-03T02:43:02.026Z,99.90
2017-11-03T02:45:29.607Z,99.90
2017-11-03T02:47:57.137Z,99.90
2017-11-03T02:50:24.722Z,99.90
2017-11-03T02:52:53.027Z,99.90
2017-11-03T02:55:21.319Z,99.90
2017-11-03T02:57:48.880Z,99.90
2017-11-03T03:00:17.204Z,99.90
2017-11-03T03:02:44.770Z,99.90
2017-11-03T03:05:12.307Z,99.90
2017-11-03T03:07:39.992Z,99.90
2017-11-03T03:10:08.286Z,99.90
2017-11-03T03:12:35.829Z,99.90
2017-11-03T03:15:03.394Z,99.90
2017-11-03T03:17:30.921Z,99.90
2017-11-03T03:19:58.503Z,99.90
2017-11-03T03:22:26.042Z,99.90
2017-11-03T03:24:54.359Z,99.90
2017-11-03T03:27:21.934Z,99.90
2017-11-03T03:29:49.475Z,99.90
2017-11-03T03:32:17.061Z,99.90
2017-11-03T03:34:44.602Z,99.90
2017-11-03T03:37:12.944Z,99.90
2017-11-03T03:39:40.490Z,99.90
2017-11-03T03:42:08.060Z,99.90
2017-11-03T03:44:36.389Z,99.90
2017-11-03T03:47:03.936Z,99.90
2017-11-03T03:49:31.529Z,99.90
2017-11-03T03:51:59.102Z,99.90
2017-11-03T03:54:26.675Z,99.90
2017-11-03T03:56:54.230Z,99.90
2017-11-03T03:59:21.758Z,99.90
2017-11-03T04:01:49.690Z,99.90
2017-11-03T04:04:17.241Z,99.90
2017-11-03T04:06:44.786Z,99.90
2017-11-03T04:09:12.374Z,99.90
2017-11-03T04:11:39.907Z,99.90
2017-11-03T04:14:07.447Z,99.90
2017-11-03T04:16:35.022Z,99.90
2017-11-03T04:19:02.559Z,99.90
2017-11-03T04:21:30.847Z,99.90
2017-11-03T04:23:59.191Z,99.90
2017-11-03T04:26:26.763Z,99.90
2017-11-03T04:28:54.355Z,99.90
2017-11-03T04:31:21.918Z,99.90
2017-11-03T04:33:49.458Z,99.90
2017-11-03T04:36:17.021Z,99.90
2017-11-03T04:38:44.578Z,99.90
2017-11-03T04:41:15.087Z,99.90
2017-11-03T04:43:42.651Z,99.90
2017-11-03T04:46:10.183Z,99.90
2017-11-03T04:48:37.761Z,99.90
2017-11-03T04:51:05.342Z,99.90
2017-11-03T04:53:32.863Z,99.90
2017-11-03T04:56:00.390Z,99.90
2017-11-03T04:58:27.950Z,99.90
2017-11-03T05:00:55.482Z,99.90
2017-11-03T05:03:23.034Z,99.90
2017-11-03T05:05:50.557Z,99.90
2017-11-03T05:08:18.130Z,99.90
2017-11-03T05:10:45.654Z,99.90
2017-11-03T05:13:13.220Z,99.90
2017-11-03T05:15:40.760Z,99.90
2017-11-03T05:18:08.282Z,99.90
2017-11-03T05:20:36.839Z,99.90
2017-11-03T05:23:04.369Z,99.90
2017-11-03T05:25:31.899Z,99.90
2017-11-03T05:27:59.467Z,99.90
2017-11-03T05:30:26.990Z,99.90
2017-11-03T05:32:54.546Z,99.90
2017-11-03T05:35:22.843Z,99.90
2017-11-03T05:37:51.180Z,99.90
2017-11-03T05:40:18.766Z,99.90
2017-11-03T05:42:46.301Z,99.90
2017-11-03T05:45:13.855Z,99.90
2017-11-03T05:47:41.384Z,99.90
2017-11-03T05:50:08.946Z,99.90
2017-11-03T05:52:36.501Z,99.90
2017-11-03T05:55:04.072Z,99.90
2017-11-03T05:57:31.594Z,99.90
2017-11-03T05:59:59.883Z,99.90
2017-11-03T06:02:28.209Z,99.90
2017-11-03T06:04:55.734Z,99.90
2017-11-03T06:07:23.302Z,99.90
2017-11-03T06:09:50.840Z,99.90
2017-11-03T06:12:18.402Z,99.90
2017-11-03T06:14:45.986Z,99.90
2017-11-03T06:17:13.590Z,99.90
2017-11-03T06:19:41.118Z,99.90
2017-11-03T06:22:08.639Z,99.90
2017-11-03T06:24:36.965Z,99.90
2017-11-03T06:27:04.495Z,99.90
2017-11-03T06:29:32.060Z,99.90
2017-11-03T06:31:59.603Z,99.90
2017-11-03T06:34:27.156Z,99.90
2017-11-03T06:36:54.698Z,99.90
2017-11-03T06:39:23.016Z,99.90
2017-11-03T06:41:50.578Z,99.90
2017-11-03T06:44:18.110Z,99.90
2017-11-03T06:46:45.679Z,99.90
2017-11-03T06:49:13.204Z,99.90
2017-11-03T06:51:40.795Z,99.90
2017-11-03T06:54:08.377Z,99.90
2017-11-03T06:56:35.916Z,99.90
2017-11-03T06:59:03.446Z,99.90
2017-11-03T07:01:31.014Z,99.90
2017-11-03T07:03:58.554Z,99.90
2017-11-03T07:06:26.104Z,99.90
2017-11-03T07:08:53.671Z,99.90
2017-11-03T07:11:21.238Z,99.90
2017-11-03T07:13:49.527Z,99.90
2017-11-03T07:16:17.849Z,99.90
2017-11-03T07:18:45.386Z,99.90
2017-11-03T07:21:12.954Z,99.90
2017-11-03T07:23:41.246Z,99.90
2017-11-03T07:26:09.575Z,99.90
2017-11-03T07:28:37.112Z,99.90
2017-11-03T07:31:04.678Z,99.90
2017-11-03T07:33:32.985Z,99.90
2017-11-03T07:36:00.566Z,99.90
2017-11-03T07:38:28.094Z,99.90
2017-11-03T07:40:56.418Z,99.90
2017-11-03T07:43:23.984Z,99.90
2017-11-03T07:45:51.524Z,99.90
2017-11-03T07:48:19.105Z,99.90
2017-11-03T07:50:47.409Z,99.90
2017-11-03T07:53:15.701Z,99.90
2017-11-03T07:55:44.029Z,99.90
2017-11-03T07:58:11.561Z,99.90
2017-11-03T08:00:39.909Z,99.90
2017-11-03T08:03:07.433Z,99.90
2017-11-03T08:05:34.966Z,99.90
2017-11-03T08:08:02.524Z,99.90
2017-11-03T08:10:30.049Z,99.90
2017-11-03T08:12:57.605Z,99.90
2017-11-03T08:15:25.927Z,99.90
2017-11-03T08:17:53.465Z,99.90
2017-11-03T08:20:21.786Z,99.90
2017-11-03T08:22:49.317Z,99.90
2017-11-03T08:25:17.647Z,99.90
2017-11-03T08:27:45.174Z,99.90
2017-11-03T08:30:12.738Z,99.90
2017-11-03T08:32:40.268Z,99.90
2017-11-03T08:35:07.798Z,99.90
2017-11-03T08:37:35.409Z,99.90
2017-11-03T08:40:02.939Z,99.90
2017-11-03T08:42:31.279Z,99.90
2017-11-03T08:44:58.812Z,99.90
2017-11-03T08:47:27.116Z,99.90
2017-11-03T08:49:54.670Z,99.90
2017-11-03T08:52:22.973Z,99.90
2017-11-03T08:54:50.548Z,99.90
2017-11-03T08:57:18.115Z,99.90
2017-11-03T08:59:45.667Z,99.90
2017-11-03T09:02:14.011Z,99.90
2017-11-03T09:04:41.534Z,99.90
2017-11-03T09:07:09.829Z,99.90
2017-11-03T09:09:38.170Z,99.90
2017-11-03T09:12:05.718Z,99.90
2017-11-03T09:14:33.290Z,99.90
2017-11-03T09:17:00.832Z,99.90
2017-11-03T09:19:28.371Z,99.90
2017-11-03T09:21:55.938Z,99.90
2017-11-03T09:24:23.474Z,99.90
2017-11-03T09:26:50.999Z,99.90
2017-11-03T09:29:18.562Z,99.90
2017-11-03T09:31:46.098Z,99.90
2017-11-03T09:34:13.690Z,99.90
2017-11-03T09:36:41.225Z,99.90
2017-11-03T09:39:08.757Z,99.90
2017-11-03T09:41:36.339Z,99.90
2017-11-03T09:44:03.874Z,99.90
2017-11-03T09:46:31.453Z,99.90
2017-11-03T09:48:58.991Z,99.90
2017-11-03T09:51:26.521Z,99.90
2017-11-03T09:53:54.082Z,99.90
2017-11-03T09:56:21.628Z,99.90
2017-11-03T09:58:49.211Z,99.90
2017-11-03T10:01:16.795Z,99.90
2017-11-03T10:03:44.327Z,99.90
2017-11-03T10:06:11.874Z,99.90
2017-11-03T10:08:40.199Z,99.90
2017-11-03T10:11:07.771Z,99.90
2017-11-03T10:13:35.300Z,99.90
2017-11-03T10:16:03.596Z,99.90
2017-11-03T10:18:31.934Z,99.90
2017-11-03T10:20:59.482Z,99.90
2017-11-03T10:23:27.056Z,99.90
2017-11-03T10:25:54.582Z,99.80
2017-11-03T10:28:22.154Z,99.90
2017-11-03T10:30:49.714Z,99.90
2017-11-03T10:33:17.250Z,99.80
2017-11-03T10:35:44.818Z,99.90
2017-11-03T10:38:12.370Z,99.90
2017-11-03T10:40:40.690Z,99.90
2017-11-03T10:43:08.250Z,99.90
2017-11-03T10:45:35.783Z,99.90
2017-11-03T10:48:03.344Z,99.90
2017-11-03T10:50:30.879Z,99.70
2017-11-03T10:52:58.442Z,99.60
2017-11-03T10:55:25.973Z,99.40
2017-11-03T10:57:53.499Z,99.50
2017-11-03T11:00:21.063Z,99.20
2017-11-03T11:02:48.628Z,99.80
2017-11-03T11:05:16.186Z,99.30
2017-11-03T11:07:43.777Z,99.70
2017-11-03T11:10:11.337Z,99.40
2017-11-03T11:12:39.759Z,99.90
2017-11-03T11:15:07.334Z,99.60
2017-11-03T11:17:34.901Z,99.10
2017-11-03T11:20:02.431Z,99.60
2017-11-03T11:22:30.759Z,99.60
2017-11-03T11:24:58.286Z,99.60
2017-11-03T11:27:26.613Z,99.70
2017-11-03T11:29:54.142Z,99.70
2017-11-03T11:32:22.471Z,99.50
2017-11-03T11:34:50.006Z,99.50
2017-11-03T11:37:18.331Z,99.40
2017-11-03T11:39:45.868Z,99.40
2017-11-03T11:42:14.198Z,99.80
2017-11-03T11:44:41.730Z,99.80
2017-11-03T11:47:10.066Z,98.80
2017-11-03T11:49:37.642Z,98.80
2017-11-03T11:52:05.192Z,99.50
2017-11-03T11:54:32.722Z,98.80
2017-11-03T11:57:00.290Z,98.80
2017-11-03T11:59:27.825Z,99.30
2017-11-03T12:01:55.395Z,99.70
2017-11-03T12:04:22.922Z,98.70
2017-11-03T12:06:51.255Z,98.20
2017-11-03T12:09:18.787Z,98.20
2017-11-03T12:11:47.110Z,96.60
2017-11-03T12:14:14.643Z,96.60
2017-11-03T12:16:42.964Z,96.20
2017-11-03T12:19:10.539Z,96.20
2017-11-03T12:21:38.066Z,96.30
2017-11-03T12:24:05.622Z,96.60
2017-11-03T12:26:33.159Z,96.60
2017-11-03T12:29:00.725Z,96.30
2017-11-03T12:31:28.289Z,96.20
2017-11-03T12:33:55.836Z,96.70
2017-11-03T12:36:24.165Z,96.40
2017-11-03T12:38:51.693Z,96.40
2017-11-03T12:41:20.045Z,94.60
2017-11-03T12:43:47.590Z,94.60
2017-11-03T12:46:15.166Z,95.00
2017-11-03T12:48:42.723Z,94.60
2017-11-03T12:51:10.320Z,95.50
2017-11-03T12:53:37.911Z,95.80
2017-11-03T12:56:05.437Z,96.40
2017-11-03T12:58:33.049Z,94.60
2017-11-03T13:01:00.583Z,95.60
2017-11-03T13:03:28.155Z,96.30
2017-11-03T13:05:55.725Z,95.00
2017-11-03T13:08:23.300Z,92.10
2017-11-03T13:10:50.911Z,91.70
2017-11-03T13:13:18.478Z,91.70
2017-11-03T13:15:46.047Z,91.30
2017-11-03T13:18:13.582Z,91.20
2017-11-03T13:20:41.935Z,89.20
2017-11-03T13:23:09.467Z,89.20
2017-11-03T13:25:37.038Z,88.20
2017-11-03T13:28:04.569Z,87.30
2017-11-03T13:30:32.090Z,89.10
2017-11-03T13:32:59.655Z,88.40
2017-11-03T13:35:27.193Z,89.40
2017-11-03T13:37:55.498Z,89.70
2017-11-03T13:40:23.854Z,90.10
2017-11-03T13:42:51.432Z,90.10
2017-11-03T13:45:18.977Z,90.20
2017-11-03T13:47:46.534Z,90.00
2017-11-03T13:50:14.096Z,91.10
2017-11-03T13:52:41.674Z,88.80
2017-11-03T13:55:09.234Z,90.30
2017-11-03T13:57:36.788Z,90.40
2017-11-03T14:00:05.106Z,90.30
2017-11-03T14:02:32.641Z,90.30
2017-11-03T14:05:00.986Z,90.90
2017-11-03T14:07:28.510Z,90.90
2017-11-03T14:09:56.834Z,91.40
2017-11-03T14:12:24.381Z,91.40
2017-11-03T14:14:51.987Z,91.30
2017-11-03T14:17:19.534Z,92.00
2017-11-03T14:19:47.114Z,91.00
2017-11-03T14:22:14.668Z,90.80
2017-11-03T14:24:42.227Z,91.70
2017-11-03T14:27:10.572Z,92.30
2017-11-03T14:29:38.113Z,92.30
2017-11-03T14:32:05.628Z,92.90
2017-11-03T14:34:33.223Z,93.50
2017-11-03T14:37:01.522Z,94.10
2017-11-03T14:39:29.809Z,94.60
2017-11-03T14:41:58.143Z,94.80
2017-11-03T14:44:25.678Z,94.80
2017-11-03T14:46:54.007Z,95.10
2017-11-03T14:49:21.555Z,95.10
2017-11-03T14:51:49.118Z,95.20
2017-11-03T14:54:17.407Z,95.70
2017-11-03T14:56:45.729Z,95.90
2017-11-03T14:59:13.264Z,95.90
2017-11-03T15:01:40.857Z,97.30
2017-11-03T15:04:08.439Z,97.80
2017-11-03T15:06:35.966Z,97.40
2017-11-03T15:09:03.558Z,97.20
2017-11-03T15:11:31.855Z,97.00
2017-11-03T15:13:59.409Z,97.00
2017-11-03T15:16:27.730Z,98.50
2017-11-03T15:18:55.259Z,98.50
2017-11-03T15:21:22.833Z,97.50
2017-11-03T15:23:50.404Z,97.70
2017-11-03T15:26:18.000Z,98.60
2017-11-03T15:28:46.293Z,98.70
2017-11-03T15:31:14.578Z,98.80
2017-11-03T15:33:42.917Z,98.80
2017-11-03T15:36:10.481Z,98.70
2017-11-03T15:38:38.046Z,99.00
2017-11-03T15:41:05.575Z,98.70
2017-11-03T15:43:33.139Z,98.60
2017-11-03T15:46:00.661Z,99.50
2017-11-03T15:48:28.229Z,99.60
2017-11-03T15:50:55.754Z,99.80
2017-11-03T15:53:23.298Z,99.40
2017-11-03T15:55:50.862Z,99.50
2017-11-03T15:58:18.390Z,99.40
2017-11-03T16:00:45.990Z,99.90
2017-11-03T16:03:13.549Z,99.90
2017-11-03T16:05:41.838Z,99.90
2017-11-03T16:08:09.395Z,99.90
2017-11-03T16:10:37.747Z,99.90
2017-11-03T16:13:05.324Z,99.90
2017-11-03T16:15:32.858Z,99.90
2017-11-03T16:18:00.428Z,99.90
2017-11-03T16:20:27.962Z,99.90
2017-11-03T16:22:55.545Z,99.90
2017-11-03T16:25:23.911Z,99.90
2017-11-03T16:27:51.448Z,99.90
2017-11-03T16:30:18.992Z,99.90
2017-11-03T16:32:47.333Z,99.90
2017-11-03T16:35:14.926Z,99.90
2017-11-03T16:37:42.458Z,99.90
2017-11-03T16:40:09.998Z,99.90
2017-11-03T16:42:38.318Z,99.90
2017-11-03T16:45:05.842Z,99.90
2017-11-03T16:47:33.518Z,99.90
2017-11-03T16:50:01.041Z,99.90
2017-11-03T16:52:28.576Z,99.90
2017-11-03T16:54:56.911Z,99.90
2017-11-03T16:57:24.430Z,99.90
2017-11-03T16:59:52.099Z,99.90
2017-11-03T17:02:19.651Z,99.90
2017-11-03T17:04:47.195Z,99.90
2017-11-03T17:07:14.766Z,99.90
2017-11-03T17:09:42.303Z,99.90
2017-11-03T17:12:09.864Z,99.90
2017-11-03T17:14:37.414Z,99.90
2017-11-03T17:17:05.004Z,99.90
2017-11-03T17:19:32.581Z,99.90
2017-11-03T17:22:00.102Z,99.90
2017-11-03T17:24:27.658Z,99.90
2017-11-03T17:26:55.985Z,99.90
2017-11-03T17:29:23.592Z,99.90
2017-11-03T17:31:51.162Z,99.90
2017-11-03T17:34:18.692Z,99.90
2017-11-03T17:36:46.275Z,99.90
2017-11-03T17:39:13.806Z,99.90
2017-11-03T17:41:41.498Z,99.90
2017-11-03T17:44:09.796Z,99.90
2017-11-03T17:46:38.117Z,99.90
2017-11-03T17:49:05.691Z,99.90
2017-11-03T17:51:33.252Z,99.90
2017-11-03T17:54:00.802Z,99.90
2017-11-03T17:56:29.140Z,99.90
2017-11-03T17:58:56.695Z,99.90
2017-11-03T18:01:24.215Z,99.90
2017-11-03T18:03:51.788Z,99.90
2017-11-03T18:06:19.323Z,99.90
2017-11-03T18:08:46.858Z,99.90
2017-11-03T18:11:14.430Z,99.90
2017-11-03T18:13:42.000Z,99.90
2017-11-03T18:16:11.203Z,99.90
2017-11-03T18:18:38.763Z,99.90
2017-11-03T18:21:06.366Z,99.90
2017-11-03T18:23:33.975Z,99.90
2017-11-03T18:26:01.507Z,99.90
2017-11-03T18:28:29.072Z,99.90
2017-11-03T18:30:56.642Z,99.90
2017-11-03T18:33:25.013Z,99.90
2017-11-03T18:35:52.618Z,99.90
2017-11-03T18:38:20.144Z,99.90
2017-11-03T18:40:48.446Z,99.90
2017-11-03T18:43:16.018Z,99.90
2017-11-03T18:45:44.329Z,99.90
2017-11-03T18:48:11.994Z,99.90
